Time;durP1;ratioP1;P1;durP2;ratioP2;P2;SDS_P1;SDS_P2;PMS_P1;PMS_P2;Temp;Humidity;BMP_temperature;BMP_pressure;BME280_temperature;BME280_humidity;BME280_pressure;Samples;Min_cycle;Max_cycle;Signal;HPM_P1;HPM_P2
2021/01/11 00:00:15;;;;;;;30.30;19.02;;;4.80;99.90;;;;;;2047594;29;20034;-77
2021/01/11 00:01:15;;;;;;;23.60;18.50;;;4.80;99.90;;;;;;2047472;29;20416;-76
2021/01/11 00:02:16;;;;;;;26.17;18.05;;;4.80;99.90;;;;;;2047226;28;20035;-77
2021/01/11 00:03:17;;;;;;;29.50;20.48;;;4.80;99.90;;;;;;2054759;28;20050;-78
2021/01/11 00:04:17;;;;;;;30.92;19.02;;;4.80;99.90;;;;;;2055155;28;20031;-76
2021/01/11 00:05:18;;;;;;;29.90;19.23;;;4.80;99.90;;;;;;2047489;28;20102;-77
2021/01/11 00:06:19;;;;;;;26.40;19.05;;;4.80;99.90;;;;;;2047809;28;20033;-77
2021/01/11 00:07:19;;;;;;;29.98;20.30;;;4.80;99.90;;;;;;2047264;28;20414;-77
2021/01/11 00:08:20;;;;;;;25.17;19.17;;;4.80;99.90;;;;;;2047117;28;20023;-77
2021/01/11 00:09:21;;;;;;;26.10;19.70;;;4.80;99.90;;;;;;2047814;28;20015;-77
2021/01/11 00:10:22;;;;;;;26.85;18.70;;;4.80;99.90;;;;;;2054959;28;20034;-78
2021/01/11 00:11:23;;;;;;;27.02;19.02;;;4.80;99.90;;;;;;2050834;28;20055;-77
2021/01/11 00:12:23;;;;;;;29.38;20.70;;;4.80;99.90;;;;;;2044835;29;20471;-78
2021/01/11 00:13:24;;;;;;;26.42;19.75;;;4.80;99.90;;;;;;2047687;28;20027;-76
2021/01/11 00:14:24;;;;;;;28.85;19.25;;;4.80;99.90;;;;;;2048572;28;20023;-76
2021/01/11 00:15:25;;;;;;;26.52;18.38;;;4.80;99.90;;;;;;2054790;28;20078;-76
2021/01/11 00:16:26;;;;;;;28.65;20.00;;;4.80;99.90;;;;;;2047553;28;20016;-77
2021/01/11 00:17:26;;;;;;;28.95;19.83;;;4.70;99.90;;;;;;2047004;28;20098;-77
2021/01/11 00:18:27;;;;;;;30.05;20.50;;;4.70;99.90;;;;;;2054591;28;20529;-79
2021/01/11 00:19:27;;;;;;;28.83;20.27;;;4.70;99.90;;;;;;2054653;28;20063;-76
2021/01/11 00:20:28;;;;;;;31.30;20.55;;;4.70;99.90;;;;;;2047885;28;20020;-76
2021/01/11 00:21:29;;;;;;;26.23;20.30;;;4.70;99.90;;;;;;2047592;29;20027;-76
2021/01/11 00:22:29;;;;;;;29.70;21.38;;;4.70;99.90;;;;;;2047588;28;20036;-77
2021/01/11 00:23:30;;;;;;;33.10;21.40;;;4.70;99.90;;;;;;2047201;28;20038;-77
2021/01/11 00:24:31;;;;;;;30.27;21.02;;;4.70;99.90;;;;;;2047331;28;20027;-75
2021/01/11 00:25:31;;;;;;;28.17;20.83;;;4.70;99.90;;;;;;2046903;28;20033;-77
2021/01/11 00:26:32;;;;;;;27.27;20.88;;;4.70;99.90;;;;;;2047518;28;20031;-77
2021/01/11 00:27:32;;;;;;;31.02;21.85;;;4.70;99.90;;;;;;2046617;28;20028;-77
2021/01/11 00:28:33;;;;;;;27.77;20.38;;;4.70;99.90;;;;;;2053597;28;20126;-76
2021/01/11 00:29:34;;;;;;;33.75;22.05;;;4.70;99.90;;;;;;2054434;28;20027;-76
2021/01/11 00:30:34;;;;;;;30.65;22.77;;;4.70;99.90;;;;;;2047479;29;20035;-76
2021/01/11 00:31:35;;;;;;;30.55;21.45;;;4.70;99.90;;;;;;2047689;29;20027;-76
2021/01/11 00:32:37;;;;;;;28.58;21.27;;;4.70;99.90;;;;;;2047035;29;20027;-77
2021/01/11 00:33:38;;;;;;;30.33;21.20;;;4.70;99.90;;;;;;2047396;29;20090;-78
2021/01/11 00:34:38;;;;;;;30.25;21.85;;;4.70;99.90;;;;;;2047224;28;20019;-77
2021/01/11 00:35:39;;;;;;;30.50;21.50;;;4.70;99.90;;;;;;2047165;28;20695;-76
2021/01/11 00:36:40;;;;;;;31.08;22.95;;;4.70;99.90;;;;;;2047107;28;20135;-76
2021/01/11 00:37:40;;;;;;;32.20;22.90;;;4.70;99.90;;;;;;2046906;28;20455;-76
2021/01/11 00:38:41;;;;;;;26.45;20.90;;;4.70;99.90;;;;;;2047061;28;20058;-76
2021/01/11 00:39:42;;;;;;;31.23;22.05;;;4.70;99.90;;;;;;2047744;28;20130;-77
2021/01/11 00:40:42;;;;;;;29.55;20.90;;;4.70;99.90;;;;;;2046434;29;20462;-76
2021/01/11 00:41:43;;;;;;;30.88;21.77;;;4.70;99.90;;;;;;2046709;29;20082;-75
2021/01/11 00:42:44;;;;;;;28.30;21.85;;;4.70;99.90;;;;;;2047436;28;20023;-75
2021/01/11 00:43:44;;;;;;;29.67;21.00;;;4.70;99.90;;;;;;2054948;28;20081;-76
2021/01/11 00:44:45;;;;;;;31.10;22.10;;;4.70;99.90;;;;;;2054371;28;20030;-75
2021/01/11 00:45:46;;;;;;;28.25;21.45;;;4.70;99.90;;;;;;2047217;28;20487;-75
2021/01/11 00:46:46;;;;;;;29.63;20.90;;;4.70;99.90;;;;;;2046725;28;20379;-76
2021/01/11 00:47:47;;;;;;;29.13;21.02;;;4.70;99.90;;;;;;2047005;28;20062;-76
2021/01/11 00:48:47;;;;;;;31.95;22.70;;;4.70;99.90;;;;;;2046217;29;20031;-76
2021/01/11 00:49:48;;;;;;;28.73;21.58;;;4.70;99.90;;;;;;2047075;29;20470;-76
2021/01/11 00:50:49;;;;;;;28.30;21.98;;;4.70;99.90;;;;;;2054520;28;20090;-75
2021/01/11 00:51:49;;;;;;;32.20;22.27;;;4.70;99.90;;;;;;2047305;28;20434;-77
2021/01/11 00:52:50;;;;;;;31.33;22.15;;;4.70;99.90;;;;;;2046912;28;20118;-76
2021/01/11 00:53:50;;;;;;;31.50;21.75;;;4.70;99.90;;;;;;2052493;28;20094;-78
2021/01/11 00:54:51;;;;;;;30.00;21.00;;;4.70;99.90;;;;;;2054421;28;20034;-76
2021/01/11 00:55:51;;;;;;;31.63;22.65;;;4.70;99.90;;;;;;2047547;28;20036;-75
2021/01/11 00:56:52;;;;;;;27.25;21.45;;;4.70;99.90;;;;;;2046442;28;20438;-77
2021/01/11 00:57:53;;;;;;;29.35;22.48;;;4.70;99.90;;;;;;2047354;28;20027;-75
2021/01/11 00:58:53;;;;;;;27.40;21.33;;;4.70;99.90;;;;;;2046441;28;20031;-76
2021/01/11 00:59:54;;;;;;;35.10;22.38;;;4.70;99.90;;;;;;2047292;28;20039;-75
2021/01/11 01:00:54;;;;;;;30.00;22.27;;;4.60;99.90;;;;;;2046430;29;20114;-77
2021/01/11 01:01:57;;;;;;;31.45;22.45;;;4.70;99.90;;;;;;2046556;29;20023;-76
2021/01/11 01:02:57;;;;;;;27.83;20.15;;;4.70;99.90;;;;;;2046712;29;20031;-76
2021/01/11 01:03:58;;;;;;;29.20;21.42;;;4.70;99.90;;;;;;2047390;28;20035;-76
2021/01/11 01:04:58;;;;;;;32.03;22.10;;;4.70;99.90;;;;;;2046963;28;20034;-76
2021/01/11 01:05:59;;;;;;;29.30;20.95;;;4.70;99.90;;;;;;2047198;28;20262;-77
2021/01/11 01:07:03;;;;;;;34.67;22.00;;;4.70;99.90;;;;;;2046132;28;20098;-77
2021/01/11 01:08:04;;;;;;;28.35;21.65;;;4.70;99.90;;;;;;2046701;28;20023;-78
2021/01/11 01:09:05;;;;;;;32.15;21.08;;;4.70;99.90;;;;;;2047171;29;20054;-78
2021/01/11 01:10:06;;;;;;;28.92;21.98;;;4.70;99.90;;;;;;2047158;29;20050;-77
2021/01/11 01:11:10;;;;;;;30.70;22.00;;;4.70;99.90;;;;;;2054515;28;20034;-77
2021/01/11 01:12:11;;;;;;;32.63;22.60;;;4.70;99.90;;;;;;2054408;28;20022;-76
2021/01/11 01:13:11;;;;;;;29.67;22.33;;;4.70;99.90;;;;;;2046863;29;20022;-77
2021/01/11 01:14:12;;;;;;;28.63;21.77;;;4.70;99.90;;;;;;2046628;29;20050;-77
2021/01/11 01:15:13;;;;;;;31.05;22.95;;;4.70;99.90;;;;;;2047351;29;20101;-77
2021/01/11 01:16:13;;;;;;;30.38;21.83;;;4.70;99.90;;;;;;2046811;29;20046;-77
2021/01/11 01:17:14;;;;;;;29.88;22.52;;;4.70;99.90;;;;;;2046667;29;20027;-76
2021/01/11 01:18:14;;;;;;;31.35;23.08;;;4.70;99.90;;;;;;2045425;29;20027;-77
2021/01/11 01:19:15;;;;;;;35.30;21.38;;;4.70;99.90;;;;;;2046992;29;20031;-75
2021/01/11 01:20:16;;;;;;;31.02;22.88;;;4.70;99.90;;;;;;2039196;29;20106;-77
2021/01/11 01:21:17;;;;;;;27.45;21.85;;;4.70;99.90;;;;;;2045180;29;20077;-76
2021/01/11 01:22:17;;;;;;;29.05;21.15;;;4.70;99.90;;;;;;2047024;29;20034;-76
2021/01/11 01:23:18;;;;;;;33.40;22.48;;;4.70;99.90;;;;;;2046974;29;20031;-76
2021/01/11 01:24:19;;;;;;;29.17;21.48;;;4.70;99.90;;;;;;2046543;28;20031;-77
2021/01/11 01:25:19;;;;;;;32.95;23.00;;;4.70;99.90;;;;;;2047277;29;20038;-76
2021/01/11 01:26:20;;;;;;;28.55;22.52;;;4.70;99.90;;;;;;2046792;28;20136;-75
2021/01/11 01:27:21;;;;;;;30.02;21.85;;;4.70;99.90;;;;;;2046626;28;20427;-75
2021/01/11 01:28:21;;;;;;;28.67;22.25;;;4.70;99.90;;;;;;2046287;28;20070;-77
2021/01/11 01:29:22;;;;;;;29.65;21.88;;;4.60;99.90;;;;;;2047196;28;20023;-76
2021/01/11 01:30:22;;;;;;;31.38;23.60;;;4.60;99.90;;;;;;2046638;28;20075;-78
2021/01/11 01:31:23;;;;;;;32.95;22.98;;;4.60;99.90;;;;;;2047398;28;20030;-77
2021/01/11 01:32:23;;;;;;;36.50;23.17;;;4.60;99.90;;;;;;2046879;28;20070;-77
2021/01/11 01:33:24;;;;;;;31.23;21.98;;;4.60;99.90;;;;;;2046958;28;20050;-77
2021/01/11 01:34:25;;;;;;;31.88;22.30;;;4.60;99.90;;;;;;2046264;28;20035;-77
2021/01/11 01:35:26;;;;;;;29.45;21.77;;;4.60;99.90;;;;;;2047089;28;20356;-77
2021/01/11 01:36:26;;;;;;;29.92;22.92;;;4.60;99.90;;;;;;2046601;29;20023;-77
2021/01/11 01:37:27;;;;;;;29.85;21.95;;;4.60;99.90;;;;;;2046811;29;20030;-77
2021/01/11 01:38:28;;;;;;;30.88;23.85;;;4.60;99.90;;;;;;2046467;29;20030;-75
2021/01/11 01:39:29;;;;;;;31.67;23.38;;;4.60;99.90;;;;;;2046597;28;20016;-77
2021/01/11 01:40:29;;;;;;;29.27;23.00;;;4.60;99.90;;;;;;2046881;29;20043;-77
2021/01/11 01:41:30;;;;;;;29.33;23.05;;;4.60;99.90;;;;;;2054822;28;20035;-76
2021/01/11 01:42:31;;;;;;;31.70;22.77;;;4.60;99.90;;;;;;2039370;29;20028;-77
2021/01/11 01:43:31;;;;;;;29.85;22.83;;;4.60;99.90;;;;;;2039669;29;20035;-77
2021/01/11 01:44:32;;;;;;;33.95;23.38;;;4.60;99.90;;;;;;2047083;28;20038;-76
2021/01/11 01:45:32;;;;;;;32.03;22.98;;;4.60;99.90;;;;;;2046787;28;20031;-77
2021/01/11 01:46:34;;;;;;;32.97;24.17;;;4.60;99.90;;;;;;2046671;28;20031;-77
2021/01/11 01:47:35;;;;;;;31.02;23.42;;;4.60;99.90;;;;;;2046317;28;20073;-76
2021/01/11 01:48:36;;;;;;;30.02;22.88;;;4.60;99.90;;;;;;2045803;28;20027;-76
2021/01/11 01:49:37;;;;;;;31.77;22.75;;;4.60;99.90;;;;;;2046652;29;20023;-76
2021/01/11 01:50:39;;;;;;;31.58;23.45;;;4.70;99.90;;;;;;2046454;28;20020;-77
2021/01/11 01:51:40;;;;;;;31.40;22.75;;;4.60;99.90;;;;;;2047263;28;20087;-77
2021/01/11 01:52:43;;;;;;;32.47;23.60;;;4.60;99.90;;;;;;2046795;28;20033;-76
2021/01/11 01:53:44;;;;;;;32.85;23.90;;;4.60;99.90;;;;;;2046499;28;20078;-75
2021/01/11 01:54:48;;;;;;;32.83;23.83;;;4.60;99.90;;;;;;2046553;28;20070;-76
2021/01/11 01:55:49;;;;;;;30.52;22.83;;;4.60;99.90;;;;;;2046671;28;20027;-76
2021/01/11 01:56:50;;;;;;;36.97;24.20;;;4.60;99.90;;;;;;2046268;28;20059;-77
2021/01/11 01:57:55;;;;;;;30.50;22.73;;;4.60;99.90;;;;;;2046637;28;20399;-78
2021/01/11 01:58:57;;;;;;;30.63;23.45;;;4.60;99.90;;;;;;2046229;29;20039;-76
2021/01/11 01:59:58;;;;;;;31.00;23.83;;;4.60;99.90;;;;;;2046776;29;20031;-77
2021/01/11 02:00:59;;;;;;;32.13;23.92;;;4.60;99.90;;;;;;2046834;29;20037;-75
2021/01/11 02:02:00;;;;;;;32.05;23.67;;;4.60;99.90;;;;;;2046139;28;20072;-78
2021/01/11 02:03:01;;;;;;;33.85;24.33;;;4.60;99.90;;;;;;2047779;28;20035;-76
2021/01/11 02:04:02;;;;;;;33.35;23.67;;;4.60;99.90;;;;;;2046672;29;20027;-77
2021/01/11 02:05:04;;;;;;;34.53;24.98;;;4.60;99.90;;;;;;2054030;28;20058;-77
2021/01/11 02:06:05;;;;;;;36.35;24.08;;;4.60;99.90;;;;;;2053779;28;20043;-75
2021/01/11 02:07:21;;;;;;;35.42;24.25;;;4.60;99.90;;;;;;2046403;28;20031;-76
2021/01/11 02:08:39;;;;;;;30.90;23.25;;;4.60;99.90;;;;;;2046229;29;20015;-76
2021/01/11 02:09:47;;;;;;;33.90;23.63;;;4.60;99.90;;;;;;2046993;28;20393;-76
2021/01/11 02:10:55;;;;;;;34.90;25.95;;;4.50;99.90;;;;;;2046336;29;20027;-76
2021/01/11 02:12:05;;;;;;;42.50;25.40;;;4.50;99.90;;;;;;2038473;29;20562;-77
2021/01/11 02:13:27;;;;;;;33.45;25.00;;;4.50;99.90;;;;;;2043088;29;20078;-77
2021/01/11 02:14:50;;;;;;;34.55;24.52;;;4.50;99.90;;;;;;2046593;28;20027;-78
2021/01/11 02:15:57;;;;;;;31.67;23.20;;;4.50;99.90;;;;;;2046662;29;20024;-77
2021/01/11 02:17:09;;;;;;;34.42;25.33;;;4.50;99.90;;;;;;2046569;29;20051;-76
2021/01/11 02:18:14;;;;;;;34.03;24.42;;;4.40;99.90;;;;;;2045811;29;20023;-76
2021/01/11 02:19:15;;;;;;;31.83;24.75;;;4.50;99.90;;;;;;2040712;29;20020;-76
2021/01/11 02:20:24;;;;;;;40.53;25.70;;;4.40;99.90;;;;;;2046641;29;20086;-77
2021/01/11 02:22:05;;;;;;;32.53;25.05;;;4.50;99.90;;;;;;2047066;29;20059;-76
2021/01/11 02:23:31;;;;;;;30.38;23.77;;;4.40;99.90;;;;;;2036940;29;20040;-76
2021/01/11 02:25:05;;;;;;;32.20;24.10;;;4.40;99.90;;;;;;2036861;29;20043;-77
2021/01/11 02:26:19;;;;;;;30.98;22.80;;;4.30;99.90;;;;;;2046852;29;20023;-78
2021/01/11 02:27:45;;;;;;;32.78;24.52;;;4.40;99.90;;;;;;2045919;29;20411;-76
2021/01/11 02:29:07;;;;;;;33.22;24.40;;;4.40;99.90;;;;;;2045643;29;20031;-77
2021/01/11 02:30:22;;;;;;;34.03;24.42;;;4.30;99.90;;;;;;2043033;28;20019;-77
2021/01/11 02:31:24;;;;;;;34.70;24.52;;;4.30;99.90;;;;;;2047828;29;20027;-77
2021/01/11 02:32:29;;;;;;;33.90;24.20;;;4.30;99.90;;;;;;2047345;28;20090;-78
2021/01/11 02:33:30;;;;;;;32.83;24.15;;;4.30;99.90;;;;;;2044552;29;20023;-77
2021/01/11 02:34:33;;;;;;;32.53;24.80;;;4.40;99.90;;;;;;2046190;29;20038;-77
2021/01/11 02:35:58;;;;;;;32.85;25.15;;;4.40;99.90;;;;;;2046376;28;20106;-77
2021/01/11 02:37:01;;;;;;;35.35;24.77;;;4.30;99.90;;;;;;2053543;28;20031;-77
2021/01/11 02:38:03;;;;;;;32.38;24.27;;;4.30;99.90;;;;;;2053740;28;20023;-76
2021/01/11 02:39:04;;;;;;;36.30;24.83;;;4.30;99.90;;;;;;2046565;29;20027;-77
2021/01/11 02:40:06;;;;;;;36.17;24.83;;;4.30;99.90;;;;;;2046773;28;20035;-78
2021/01/11 02:41:07;;;;;;;32.92;24.58;;;4.30;99.90;;;;;;2053547;28;20564;-77
2021/01/11 02:42:08;;;;;;;35.00;26.00;;;4.40;99.90;;;;;;2056852;28;20085;-77
2021/01/11 02:43:08;;;;;;;35.47;26.45;;;4.40;99.90;;;;;;2052350;28;20027;-76
2021/01/11 02:44:09;;;;;;;34.58;24.95;;;4.40;99.90;;;;;;2051586;28;20437;-76
2021/01/11 02:45:11;;;;;;;37.25;26.50;;;4.40;99.90;;;;;;2052547;28;20115;-75
2021/01/11 02:46:12;;;;;;;36.50;26.50;;;4.40;99.90;;;;;;2045393;28;20815;-76
2021/01/11 02:47:13;;;;;;;33.55;24.58;;;4.40;99.90;;;;;;2057215;28;20397;-77
2021/01/11 02:48:36;;;;;;;33.78;27.20;;;4.40;99.90;;;;;;2048892;28;20069;-75
2021/01/11 02:49:44;;;;;;;37.53;25.60;;;4.40;99.90;;;;;;2048152;28;20442;-77
2021/01/11 02:50:51;;;;;;;38.83;26.45;;;4.40;99.90;;;;;;2046492;28;20027;-76
2021/01/11 02:52:18;;;;;;;40.03;25.63;;;4.30;99.90;;;;;;2049694;28;20031;-75
2021/01/11 02:53:34;;;;;;;34.42;25.55;;;4.30;99.90;;;;;;2050653;28;20057;-75
2021/01/11 02:54:39;;;;;;;40.50;26.50;;;4.30;99.90;;;;;;2054808;28;20110;-76
2021/01/11 02:55:48;;;;;;;32.75;25.80;;;4.30;99.90;;;;;;2040129;28;20038;-77
2021/01/11 02:56:52;;;;;;;35.30;25.08;;;4.30;99.90;;;;;;2045879;29;20082;-76
2021/01/11 02:58:04;;;;;;;38.88;27.13;;;4.30;99.90;;;;;;2040405;29;20039;-76
2021/01/11 02:59:13;;;;;;;41.97;27.77;;;4.30;99.90;;;;;;2040265;29;20028;-76
2021/01/11 03:00:17;;;;;;;38.25;26.98;;;4.30;99.90;;;;;;2048236;28;20023;-75
2021/01/11 03:01:18;;;;;;;42.20;28.35;;;4.30;99.90;;;;;;2052714;28;20031;-76
2021/01/11 03:02:22;;;;;;;38.85;28.70;;;4.30;99.90;;;;;;2061951;28;20026;-78
2021/01/11 03:03:25;;;;;;;37.58;28.33;;;4.30;99.90;;;;;;2050862;28;20034;-76
2021/01/11 03:04:25;;;;;;;37.35;27.85;;;4.30;99.90;;;;;;2041485;29;20034;-74
2021/01/11 03:05:26;;;;;;;37.63;28.77;;;4.20;99.90;;;;;;2049179;29;20770;-75
2021/01/11 03:06:31;;;;;;;36.88;28.65;;;4.20;99.90;;;;;;2051654;28;20083;-75
2021/01/11 03:07:32;;;;;;;36.47;27.20;;;4.20;99.90;;;;;;2055562;28;20045;-74
2021/01/11 03:08:32;;;;;;;37.03;27.25;;;4.20;99.90;;;;;;2057011;28;20023;-75
2021/01/11 03:09:36;;;;;;;37.17;27.95;;;4.20;99.90;;;;;;2055387;28;20109;-75
2021/01/11 03:10:36;;;;;;;37.92;27.63;;;4.10;99.90;;;;;;2049436;29;20028;-76
2021/01/11 03:11:37;;;;;;;39.72;29.60;;;4.20;99.90;;;;;;2049479;29;20027;-75
2021/01/11 03:12:37;;;;;;;38.00;27.55;;;4.20;99.90;;;;;;2049057;29;20027;-75
2021/01/11 03:13:38;;;;;;;37.13;28.60;;;4.20;99.90;;;;;;2049212;29;20482;-75
2021/01/11 03:14:39;;;;;;;36.17;27.52;;;4.20;99.90;;;;;;2049367;29;20586;-75
2021/01/11 03:15:40;;;;;;;36.58;28.08;;;4.20;99.90;;;;;;2056560;28;20027;-76
2021/01/11 03:16:40;;;;;;;40.72;28.95;;;4.20;99.90;;;;;;2056515;28;20019;-75
2021/01/11 03:17:41;;;;;;;41.55;28.35;;;4.20;99.90;;;;;;2048971;28;20379;-75
2021/01/11 03:18:42;;;;;;;38.00;27.33;;;4.20;99.90;;;;;;2048322;29;20079;-75
2021/01/11 03:19:42;;;;;;;38.85;27.58;;;4.20;99.90;;;;;;2048679;29;20486;-75
2021/01/11 03:20:43;;;;;;;36.03;27.67;;;4.20;99.90;;;;;;2048801;29;20139;-77
2021/01/11 03:21:44;;;;;;;37.58;27.38;;;4.20;99.90;;;;;;2048628;29;20024;-76
2021/01/11 03:22:45;;;;;;;37.50;27.55;;;4.20;99.90;;;;;;2049256;28;20466;-76
2021/01/11 03:23:46;;;;;;;39.67;28.15;;;4.30;99.90;;;;;;2049214;29;20035;-77
2021/01/11 03:24:48;;;;;;;34.60;26.23;;;4.30;99.90;;;;;;2048985;28;20031;-77
2021/01/11 03:25:48;;;;;;;41.95;28.23;;;4.30;99.90;;;;;;2049349;28;20119;-75
2021/01/11 03:26:49;;;;;;;36.33;27.90;;;4.30;99.90;;;;;;2048441;28;20042;-76
2021/01/11 03:27:50;;;;;;;39.60;28.23;;;4.30;99.90;;;;;;2049298;28;20031;-76
2021/01/11 03:28:51;;;;;;;37.65;28.52;;;4.30;99.90;;;;;;2048844;28;20035;-77
2021/01/11 03:29:51;;;;;;;36.80;28.30;;;4.30;99.90;;;;;;2049243;28;20169;-76
2021/01/11 03:30:52;;;;;;;34.53;27.23;;;4.30;99.90;;;;;;2049102;28;20031;-75
2021/01/11 03:31:53;;;;;;;33.22;26.52;;;4.30;99.90;;;;;;2047566;28;20464;-76
2021/01/11 03:32:53;;;;;;;37.03;27.60;;;4.30;99.90;;;;;;2050126;28;20082;-75
2021/01/11 03:33:54;;;;;;;37.75;27.70;;;4.30;99.90;;;;;;2055720;28;20023;-76
2021/01/11 03:34:55;;;;;;;38.53;28.90;;;4.20;99.90;;;;;;2050550;28;20494;-76
2021/01/11 03:35:59;;;;;;;37.28;28.42;;;4.20;99.90;;;;;;2051755;28;20023;-76
2021/01/11 03:37:00;;;;;;;38.92;29.27;;;4.20;99.90;;;;;;2047920;29;20031;-76
2021/01/11 03:38:00;;;;;;;36.17;28.55;;;4.20;99.90;;;;;;2048408;29;20086;-75
2021/01/11 03:39:02;;;;;;;39.22;28.27;;;4.20;99.90;;;;;;2048234;29;20110;-76
2021/01/11 03:40:03;;;;;;;37.05;29.90;;;4.20;99.90;;;;;;2049054;29;20031;-77
2021/01/11 03:41:04;;;;;;;39.88;29.10;;;4.20;99.90;;;;;;2049062;29;20086;-76
2021/01/11 03:42:05;;;;;;;38.17;28.98;;;4.20;99.90;;;;;;2053469;28;20125;-77
2021/01/11 03:43:05;;;;;;;43.42;30.48;;;4.20;99.90;;;;;;2044087;29;20086;-76
2021/01/11 03:44:07;;;;;;;35.72;28.23;;;4.20;99.90;;;;;;2048619;29;20035;-76
2021/01/11 03:45:09;;;;;;;42.90;30.90;;;4.20;99.90;;;;;;2048766;29;20046;-75
2021/01/11 03:46:14;;;;;;;41.85;30.23;;;4.20;99.90;;;;;;2049270;29;20035;-76
2021/01/11 03:47:15;;;;;;;44.13;30.45;;;4.20;99.90;;;;;;2047887;29;20054;-75
2021/01/11 03:48:15;;;;;;;41.72;30.42;;;4.20;99.90;;;;;;2048956;29;20015;-75
2021/01/11 03:49:16;;;;;;;39.35;31.20;;;4.20;99.90;;;;;;2048748;29;20050;-76
2021/01/11 03:50:16;;;;;;;37.10;29.55;;;4.20;99.90;;;;;;2049195;28;20024;-75
2021/01/11 03:51:17;;;;;;;39.83;29.33;;;4.20;99.90;;;;;;2049075;28;20031;-76
2021/01/11 03:52:18;;;;;;;42.03;31.42;;;4.20;99.90;;;;;;2049236;28;20091;-76
2021/01/11 03:53:18;;;;;;;42.70;30.15;;;4.20;99.90;;;;;;2048044;28;20085;-76
2021/01/11 03:54:19;;;;;;;44.83;31.42;;;4.20;99.90;;;;;;2048512;29;20026;-76
2021/01/11 03:55:19;;;;;;;40.53;31.00;;;4.20;99.90;;;;;;2047625;29;20035;-76
2021/01/11 03:56:21;;;;;;;42.08;31.15;;;4.20;99.90;;;;;;2048195;29;20042;-76
2021/01/11 03:57:22;;;;;;;43.95;30.55;;;4.20;99.90;;;;;;2048070;29;20024;-76
2021/01/11 03:58:22;;;;;;;46.47;31.80;;;4.20;99.90;;;;;;2048863;29;20106;-76
2021/01/11 03:59:23;;;;;;;46.70;32.10;;;4.20;99.90;;;;;;2048659;29;20105;-75
2021/01/11 04:00:24;;;;;;;45.35;32.53;;;4.20;99.90;;;;;;2049173;29;20019;-75
2021/01/11 04:01:27;;;;;;;43.45;32.55;;;4.20;99.90;;;;;;2048890;29;20031;-77
2021/01/11 04:02:28;;;;;;;42.53;31.73;;;4.20;99.90;;;;;;2047705;28;20037;-77
2021/01/11 04:03:28;;;;;;;42.60;32.28;;;4.20;99.90;;;;;;2054982;28;20038;-76
2021/01/11 04:04:29;;;;;;;42.28;32.80;;;4.20;99.90;;;;;;2055510;28;20030;-76
2021/01/11 04:05:30;;;;;;;47.03;32.60;;;4.20;99.90;;;;;;2047694;28;20606;-76
2021/01/11 04:06:31;;;;;;;44.15;31.90;;;4.20;99.90;;;;;;2047230;28;20070;-78
2021/01/11 04:07:31;;;;;;;40.72;31.63;;;4.20;99.90;;;;;;2047221;28;20023;-75
2021/01/11 04:08:32;;;;;;;43.70;33.05;;;4.20;99.90;;;;;;2047625;28;20782;-77
2021/01/11 04:09:32;;;;;;;46.33;32.90;;;4.20;99.90;;;;;;2047717;28;20054;-76
2021/01/11 04:10:34;;;;;;;43.30;31.92;;;4.20;99.90;;;;;;2047896;28;20023;-75
2021/01/11 04:11:35;;;;;;;41.60;31.95;;;4.20;99.90;;;;;;2047620;28;20038;-76
2021/01/11 04:12:35;;;;;;;39.30;30.88;;;4.20;99.90;;;;;;2047598;28;20443;-76
2021/01/11 04:13:36;;;;;;;41.95;31.58;;;4.20;99.90;;;;;;2047217;28;20379;-75
2021/01/11 04:14:38;;;;;;;39.35;28.88;;;4.20;99.90;;;;;;2047873;28;20123;-78
2021/01/11 04:15:38;;;;;;;39.47;29.15;;;4.20;99.90;;;;;;2047587;29;20526;-77
2021/01/11 04:16:39;;;;;;;43.63;30.90;;;4.20;99.90;;;;;;2047629;29;20090;-77
2021/01/11 04:17:40;;;;;;;39.20;29.08;;;4.10;99.90;;;;;;2047145;29;20088;-78
2021/01/11 04:18:41;;;;;;;37.88;28.63;;;4.10;99.90;;;;;;2047410;29;20027;-77
2021/01/11 04:19:41;;;;;;;34.50;27.27;;;4.10;99.90;;;;;;2047081;29;20031;-77
2021/01/11 04:20:42;;;;;;;39.30;29.35;;;4.10;99.90;;;;;;2047097;29;20031;-77
2021/01/11 04:21:43;;;;;;;38.20;27.77;;;4.10;99.90;;;;;;2047747;29;20103;-75
2021/01/11 04:22:44;;;;;;;37.55;27.98;;;4.10;99.90;;;;;;2047469;29;20023;-76
2021/01/11 04:23:44;;;;;;;36.05;26.65;;;4.10;99.90;;;;;;2054893;28;20026;-77
2021/01/11 04:24:45;;;;;;;37.60;28.02;;;4.10;99.90;;;;;;2054922;28;20027;-77
2021/01/11 04:25:45;;;;;;;37.53;28.10;;;4.10;99.90;;;;;;2055446;28;20525;-76
2021/01/11 04:26:46;;;;;;;36.15;28.08;;;4.10;99.90;;;;;;2047048;28;20027;-76
2021/01/11 04:27:47;;;;;;;43.45;29.17;;;4.10;99.90;;;;;;2049324;28;20047;-76
2021/01/11 04:28:47;;;;;;;41.13;28.33;;;4.10;99.90;;;;;;2047256;28;20034;-78
2021/01/11 04:29:48;;;;;;;39.88;27.55;;;4.10;99.90;;;;;;2048253;28;20474;-78
2021/01/11 04:30:48;;;;;;;36.78;27.73;;;4.10;99.90;;;;;;2052972;28;20036;-77
2021/01/11 04:31:49;;;;;;;39.80;28.88;;;4.10;99.90;;;;;;2050294;28;20062;-76
2021/01/11 04:32:51;;;;;;;34.85;26.80;;;4.10;99.90;;;;;;2046750;29;20134;-77
2021/01/11 04:33:51;;;;;;;40.28;28.60;;;4.10;99.90;;;;;;2046913;29;20027;-77
2021/01/11 04:34:52;;;;;;;38.33;28.38;;;4.10;99.90;;;;;;2047507;29;20027;-78
2021/01/11 04:35:52;;;;;;;37.17;28.77;;;4.10;99.90;;;;;;2047583;29;20023;-77
2021/01/11 04:36:53;;;;;;;36.63;28.67;;;4.10;99.90;;;;;;2046615;29;20054;-75
2021/01/11 04:37:54;;;;;;;38.90;29.08;;;4.10;99.90;;;;;;2045084;28;20581;-77
2021/01/11 04:38:55;;;;;;;36.13;28.83;;;4.10;99.90;;;;;;2053742;28;20031;-75
2021/01/11 04:39:56;;;;;;;41.97;30.60;;;4.10;99.90;;;;;;2054080;28;20035;-76
2021/01/11 04:41:00;;;;;;;39.92;30.23;;;4.20;99.90;;;;;;2047289;29;20118;-76
2021/01/11 04:42:04;;;;;;;41.22;30.48;;;4.10;99.90;;;;;;2044863;29;20127;-77
2021/01/11 04:43:27;;;;;;;39.95;30.52;;;4.10;99.90;;;;;;2039316;29;20079;-76
2021/01/11 04:44:29;;;;;;;35.47;29.23;;;4.10;99.90;;;;;;2039633;29;20020;-77
2021/01/11 04:45:30;;;;;;;39.88;30.83;;;4.10;99.90;;;;;;2043566;29;20118;-77
2021/01/11 04:46:30;;;;;;;43.05;31.90;;;4.00;99.90;;;;;;2047654;29;20035;-76
2021/01/11 04:47:31;;;;;;;40.90;30.75;;;4.00;99.90;;;;;;2046556;28;20039;-76
2021/01/11 04:48:32;;;;;;;40.42;30.65;;;4.00;99.90;;;;;;2047475;28;20114;-76
2021/01/11 04:49:33;;;;;;;41.67;31.00;;;4.00;99.90;;;;;;2047083;28;20069;-76
2021/01/11 04:50:34;;;;;;;40.70;32.20;;;4.00;99.90;;;;;;2047326;28;20027;-76
2021/01/11 04:51:39;;;;;;;39.95;30.88;;;4.00;99.90;;;;;;2047014;28;20043;-76
2021/01/11 04:52:40;;;;;;;39.97;30.85;;;3.90;99.90;;;;;;2047404;29;20036;-76
2021/01/11 04:53:42;;;;;;;42.97;31.38;;;3.90;99.90;;;;;;2046673;28;20031;-76
2021/01/11 04:54:46;;;;;;;42.17;32.50;;;3.90;99.90;;;;;;2047536;28;20032;-76
2021/01/11 04:55:47;;;;;;;41.47;31.92;;;3.90;99.90;;;;;;2047018;29;20180;-76
2021/01/11 04:56:49;;;;;;;41.45;30.77;;;3.90;99.90;;;;;;2046891;29;20064;-76
2021/01/11 04:57:57;;;;;;;40.67;30.83;;;3.80;99.90;;;;;;2046504;29;20039;-76
2021/01/11 04:59:00;;;;;;;42.30;30.67;;;3.90;99.90;;;;;;2046895;28;20103;-76
2021/01/11 05:00:05;;;;;;;40.55;29.98;;;3.90;99.90;;;;;;2046171;29;20133;-76
2021/01/11 05:01:08;;;;;;;40.00;30.02;;;3.90;99.90;;;;;;2047183;29;20072;-76
2021/01/11 05:02:19;;;;;;;39.30;30.67;;;3.80;99.90;;;;;;2047356;28;20066;-76
2021/01/11 05:03:22;;;;;;;;;;;3.80;99.90;;;;;;2047810;28;20025;-76
2021/01/11 05:04:23;;;;;;;36.88;28.70;;;3.70;99.90;;;;;;2046910;28;20557;-75
2021/01/11 05:05:24;;;;;;;43.05;29.95;;;3.70;99.90;;;;;;2046969;28;20028;-77
2021/01/11 05:06:25;;;;;;;43.53;31.75;;;3.70;99.90;;;;;;2046957;28;20126;-76
2021/01/11 05:07:30;;;;;;;38.53;30.63;;;3.70;99.90;;;;;;2046826;28;20027;-78
2021/01/11 05:08:31;;;;;;;39.25;30.58;;;3.70;99.90;;;;;;2053912;28;20027;-77
2021/01/11 05:09:32;;;;;;;41.80;30.45;;;3.70;99.90;;;;;;2054366;28;20030;-77
2021/01/11 05:10:34;;;;;;;39.10;29.15;;;3.70;99.90;;;;;;2054521;28;20030;-78
2021/01/11 05:11:35;;;;;;;41.20;31.27;;;3.70;99.90;;;;;;2046796;28;20039;-77
2021/01/11 05:12:36;;;;;;;44.90;30.98;;;3.60;99.90;;;;;;2047073;28;20033;-76
2021/01/11 05:13:37;;;;;;;41.55;30.95;;;3.60;99.90;;;;;;2047131;28;20030;-77
2021/01/11 05:14:37;;;;;;;41.95;32.38;;;3.60;99.90;;;;;;2046682;29;20102;-77
2021/01/11 05:15:41;;;;;;;40.63;31.63;;;3.60;99.90;;;;;;2046909;29;20023;-77
2021/01/11 05:16:42;;;;;;;42.65;31.75;;;3.60;99.90;;;;;;2047124;29;20439;-76
2021/01/11 05:17:45;;;;;;;39.45;31.48;;;3.60;99.90;;;;;;2046511;29;20078;-76
2021/01/11 05:18:45;;;;;;;38.35;31.25;;;3.60;99.90;;;;;;2047030;28;20050;-76
2021/01/11 05:19:46;;;;;;;38.90;31.63;;;3.50;99.90;;;;;;2046598;28;20439;-76
2021/01/11 05:20:47;;;;;;;42.13;30.10;;;3.50;99.90;;;;;;2047286;28;20378;-76
2021/01/11 05:21:47;;;;;;;40.78;32.20;;;3.60;99.90;;;;;;2049354;28;20035;-76